WAT6376 KBIL-KSDF
Flight info
| Callsign | WAT6376 |
|---|---|
| Flight time | 2h 26m |
| Altitude | 37000 |
| Route | BIL KU03U KP87A KP78G ALO CYBIL JMONY2 |
| Aircraft | MD11/H-SDE1E2E3FGHIJ2J3J4J5M1RWXY/LB1D1 |
Departure
| Time | 2026-04-28 00:45 |
|---|---|
| Airport | Billings Logan International Airport (KBIL) |
Arrival
| Time | 2026-04-28 03:12 |
|---|---|
| Airport | Louisville Muhammad Ali International Airport (KSDF) |
| Time | Latitude | Longitude | Altitude | Speed | Heading |
|---|---|---|---|---|---|
| 2026-04-28 00:20 | 45.80427 | -108.54104 | 3586 ft | 0 kts | 162° |
| 2026-04-28 00:21 | 45.80428 | -108.54104 | 3572 ft | 0 kts | 162° |
| 2026-04-28 00:36 | 45.80430 | -108.54104 | 3572 ft | 2 kts | 162° |
| 2026-04-28 00:36 | 45.80455 | -108.54116 | 3564 ft | 4 kts | 165° |
| 2026-04-28 00:36 | 45.80481 | -108.54125 | 3560 ft | 3 kts | 165° |
| 2026-04-28 00:37 | 45.80489 | -108.54129 | 3560 ft | 0 kts | 164° |
| 2026-04-28 00:39 | 45.80480 | -108.54117 | 3571 ft | 5 kts | 136° |
| 2026-04-28 00:39 | 45.80486 | -108.54066 | 3562 ft | 8 kts | 50° |
| 2026-04-28 00:40 | 45.80539 | -108.53971 | 3559 ft | 14 kts | 57° |
| 2026-04-28 00:40 | 45.80577 | -108.53884 | 3561 ft | 10 kts | 48° |
| 2026-04-28 00:40 | 45.80630 | -108.53890 | 3558 ft | 8 kts | 311° |
| 2026-04-28 00:40 | 45.80663 | -108.53988 | 3560 ft | 14 kts | 292° |
| 2026-04-28 00:41 | 45.80703 | -108.54126 | 3563 ft | 15 kts | 289° |
| 2026-04-28 00:41 | 45.80742 | -108.54270 | 3566 ft | 16 kts | 292° |
| 2026-04-28 00:41 | 45.80786 | -108.54424 | 3566 ft | 18 kts | 292° |
| 2026-04-28 00:41 | 45.80836 | -108.54599 | 3573 ft | 20 kts | 292° |
| 2026-04-28 00:42 | 45.80884 | -108.54769 | 3579 ft | 16 kts | 291° |
| 2026-04-28 00:42 | 45.80921 | -108.54899 | 3597 ft | 13 kts | 295° |
| 2026-04-28 00:42 | 45.80956 | -108.55006 | 3598 ft | 12 kts | 295° |
| 2026-04-28 00:42 | 45.80998 | -108.55136 | 3598 ft | 17 kts | 293° |
| 2026-04-28 00:43 | 45.81045 | -108.55304 | 3602 ft | 18 kts | 291° |
| 2026-04-28 00:43 | 45.81080 | -108.55432 | 3605 ft | 14 kts | 292° |
| 2026-04-28 00:43 | 45.81142 | -108.55522 | 3603 ft | 12 kts | 339° |
| 2026-04-28 00:43 | 45.81197 | -108.55511 | 3600 ft | 9 kts | 20° |
| 2026-04-28 00:44 | 45.81247 | -108.55478 | 3598 ft | 1 kts | 34° |
| 2026-04-28 00:44 | 45.81253 | -108.55428 | 3599 ft | 12 kts | 91° |
| 2026-04-28 00:44 | 45.81235 | -108.55348 | 3596 ft | 8 kts | 112° |
| 2026-04-28 00:44 | 45.81225 | -108.55310 | 3579 ft | 0 kts | 110° |
| 2026-04-28 00:45 | 45.81173 | -108.55123 | 3580 ft | 60 kts | 111° |
| 2026-04-28 00:45 | 45.80915 | -108.54193 | 3558 ft | 138 kts | 111° |
| 2026-04-28 00:45 | 45.80494 | -108.52684 | 3736 ft | 175 kts | 111° |
| 2026-04-28 00:45 | 45.80093 | -108.51052 | 4491 ft | 179 kts | 104° |
| 2026-04-28 00:46 | 45.79887 | -108.49254 | 5274 ft | 185 kts | 96° |
| 2026-04-28 00:46 | 45.79803 | -108.47428 | 6079 ft | 185 kts | 94° |
| 2026-04-28 00:46 | 45.79719 | -108.45580 | 6769 ft | 188 kts | 95° |
| 2026-04-28 00:46 | 45.79600 | -108.43578 | 6987 ft | 219 kts | 96° |
| 2026-04-28 00:47 | 45.79426 | -108.41226 | 7164 ft | 255 kts | 97° |
| 2026-04-28 00:47 | 45.79200 | -108.38578 | 7570 ft | 275 kts | 98° |
| 2026-04-28 00:47 | 45.78943 | -108.35831 | 8403 ft | 281 kts | 98° |
| 2026-04-28 00:47 | 45.78666 | -108.33065 | 9239 ft | 287 kts | 98° |
| 2026-04-28 00:48 | 45.78368 | -108.30206 | 10088 ft | 293 kts | 98° |
| 2026-04-28 00:48 | 45.78060 | -108.27343 | 10340 ft | 321 kts | 99° |
| 2026-04-28 00:48 | 45.77696 | -108.24034 | 10488 ft | 352 kts | 99° |
| 2026-04-28 00:48 | 45.77296 | -108.20474 | 10948 ft | 368 kts | 99° |
| 2026-04-28 00:49 | 45.76883 | -108.16826 | 11765 ft | 374 kts | 100° |
| 2026-04-28 00:49 | 45.76460 | -108.13119 | 12584 ft | 381 kts | 100° |
| 2026-04-28 00:49 | 45.76028 | -108.09346 | 13385 ft | 387 kts | 100° |
| 2026-04-28 00:49 | 45.75594 | -108.05560 | 14138 ft | 394 kts | 100° |
| 2026-04-28 00:50 | 45.75149 | -108.01675 | 14875 ft | 398 kts | 101° |
| 2026-04-28 00:50 | 45.74696 | -107.97743 | 15601 ft | 403 kts | 101° |
| 2026-04-28 00:50 | 45.74236 | -107.93762 | 16313 ft | 407 kts | 101° |
| 2026-04-28 00:50 | 45.73770 | -107.89740 | 17028 ft | 412 kts | 102° |
| 2026-04-28 00:51 | 45.73297 | -107.85669 | 17715 ft | 417 kts | 102° |
| 2026-04-28 00:51 | 45.72817 | -107.81549 | 18385 ft | 422 kts | 102° |
| 2026-04-28 00:51 | 45.72329 | -107.77382 | 18971 ft | 427 kts | 102° |
| 2026-04-28 00:51 | 45.71835 | -107.73173 | 19556 ft | 431 kts | 102° |
| 2026-04-28 00:52 | 45.71335 | -107.68924 | 20114 ft | 435 kts | 102° |
| 2026-04-28 00:52 | 45.70836 | -107.64691 | 20665 ft | 439 kts | 102° |
| 2026-04-28 00:52 | 45.70325 | -107.60372 | 21210 ft | 443 kts | 102° |
| 2026-04-28 00:52 | 45.69807 | -107.56016 | 21748 ft | 447 kts | 102° |
| 2026-04-28 00:53 | 45.69281 | -107.51604 | 22278 ft | 451 kts | 102° |
| 2026-04-28 00:53 | 45.68750 | -107.47165 | 22809 ft | 455 kts | 102° |
| 2026-04-28 00:53 | 45.68213 | -107.42692 | 23332 ft | 459 kts | 102° |
| 2026-04-28 00:53 | 45.67664 | -107.38178 | 23825 ft | 462 kts | 102° |
| 2026-04-28 00:54 | 45.67096 | -107.33640 | 24275 ft | 465 kts | 103° |
| 2026-04-28 00:54 | 45.66530 | -107.29140 | 24718 ft | 468 kts | 103° |
| 2026-04-28 00:54 | 45.65956 | -107.24547 | 25157 ft | 470 kts | 103° |
| 2026-04-28 00:54 | 45.65385 | -107.19938 | 25601 ft | 473 kts | 103° |
| 2026-04-28 00:55 | 45.64812 | -107.15295 | 26033 ft | 475 kts | 103° |
| 2026-04-28 00:55 | 45.64236 | -107.10627 | 26458 ft | 478 kts | 103° |
| 2026-04-28 00:55 | 45.63658 | -107.05939 | 26874 ft | 480 kts | 103° |
| 2026-04-28 00:55 | 45.63074 | -107.01225 | 27275 ft | 483 kts | 103° |
| 2026-04-28 00:56 | 45.62486 | -106.96491 | 27681 ft | 485 kts | 103° |
| 2026-04-28 00:56 | 45.61901 | -106.91800 | 28052 ft | 488 kts | 103° |
| 2026-04-28 00:56 | 45.61302 | -106.87011 | 28433 ft | 491 kts | 103° |
| 2026-04-28 00:56 | 45.60698 | -106.82206 | 28828 ft | 493 kts | 103° |
| 2026-04-28 00:57 | 45.60090 | -106.77380 | 29185 ft | 495 kts | 103° |
| 2026-04-28 00:57 | 45.59475 | -106.72526 | 29554 ft | 498 kts | 104° |
| 2026-04-28 00:57 | 45.58856 | -106.67653 | 29901 ft | 500 kts | 104° |
| 2026-04-28 00:57 | 45.58233 | -106.62766 | 30261 ft | 502 kts | 104° |
| 2026-04-28 00:58 | 45.57604 | -106.57845 | 30550 ft | 505 kts | 104° |
| 2026-04-28 00:58 | 45.56978 | -106.52969 | 30822 ft | 508 kts | 104° |
| 2026-04-28 00:58 | 45.56338 | -106.48007 | 31122 ft | 509 kts | 104° |
| 2026-04-28 00:58 | 45.55697 | -106.43039 | 31450 ft | 510 kts | 104° |
| 2026-04-28 00:59 | 45.55053 | -106.38069 | 31773 ft | 510 kts | 104° |
| 2026-04-28 00:59 | 45.54406 | -106.33098 | 32105 ft | 510 kts | 104° |
| 2026-04-28 00:59 | 45.53757 | -106.28124 | 32423 ft | 510 kts | 104° |
| 2026-04-28 00:59 | 45.53104 | -106.23150 | 32756 ft | 510 kts | 104° |
| 2026-04-28 01:00 | 45.52435 | -106.18187 | 33065 ft | 510 kts | 104° |
| 2026-04-28 01:00 | 45.51766 | -106.13285 | 33369 ft | 510 kts | 104° |
| 2026-04-28 01:00 | 45.51090 | -106.08321 | 33665 ft | 510 kts | 104° |
| 2026-04-28 01:00 | 45.50419 | -106.03354 | 33962 ft | 511 kts | 104° |
| 2026-04-28 01:01 | 45.49746 | -105.98385 | 34233 ft | 510 kts | 104° |
| 2026-04-28 01:01 | 45.49065 | -105.93423 | 34487 ft | 510 kts | 104° |
| 2026-04-28 01:01 | 45.48382 | -105.88467 | 34714 ft | 509 kts | 104° |
| 2026-04-28 01:01 | 45.47697 | -105.83520 | 34929 ft | 509 kts | 104° |
| 2026-04-28 01:02 | 45.47011 | -105.78572 | 35154 ft | 509 kts | 104° |
| 2026-04-28 01:02 | 45.46334 | -105.73698 | 35361 ft | 509 kts | 104° |
| 2026-04-28 01:02 | 45.45646 | -105.68757 | 35566 ft | 508 kts | 104° |
| 2026-04-28 01:02 | 45.44956 | -105.63823 | 35789 ft | 508 kts | 104° |
| 2026-04-28 01:03 | 45.44266 | -105.58894 | 35975 ft | 507 kts | 104° |
| 2026-04-28 01:03 | 45.43573 | -105.53971 | 36179 ft | 507 kts | 104° |
| 2026-04-28 01:03 | 45.42879 | -105.49049 | 36373 ft | 507 kts | 104° |
| 2026-04-28 01:03 | 45.42184 | -105.44140 | 36567 ft | 506 kts | 104° |
| 2026-04-28 01:04 | 45.40863 | -105.34855 | 36902 ft | 506 kts | 104° |
| 2026-04-28 01:04 | 45.40163 | -105.29955 | 37113 ft | 505 kts | 104° |
| 2026-04-28 01:05 | 45.39064 | -105.22307 | 37173 ft | 509 kts | 104° |
| 2026-04-28 01:05 | 45.37631 | -105.12392 | 37180 ft | 510 kts | 104° |
| 2026-04-28 01:06 | 45.36196 | -105.02516 | 37176 ft | 510 kts | 104° |
| 2026-04-28 01:06 | 45.34752 | -104.92645 | 37177 ft | 510 kts | 104° |
| 2026-04-28 01:07 | 45.33290 | -104.82788 | 37175 ft | 510 kts | 105° |
| 2026-04-28 01:07 | 45.31798 | -104.73005 | 37170 ft | 510 kts | 105° |
| 2026-04-28 01:08 | 45.30310 | -104.63155 | 37168 ft | 510 kts | 105° |
| 2026-04-28 01:08 | 45.28831 | -104.53312 | 37169 ft | 510 kts | 105° |
| 2026-04-28 01:09 | 45.27347 | -104.43476 | 37160 ft | 509 kts | 105° |
| 2026-04-28 01:09 | 45.25864 | -104.33712 | 37158 ft | 509 kts | 105° |
| 2026-04-28 01:10 | 45.24363 | -104.23893 | 37155 ft | 509 kts | 105° |
| 2026-04-28 01:10 | 45.22853 | -104.14078 | 37154 ft | 509 kts | 105° |
| 2026-04-28 01:11 | 45.21336 | -104.04279 | 37149 ft | 509 kts | 105° |
| 2026-04-28 01:11 | 45.19823 | -103.94557 | 37148 ft | 509 kts | 105° |
| 2026-04-28 01:12 | 45.18287 | -103.84755 | 37148 ft | 509 kts | 105° |
| 2026-04-28 01:12 | 45.16746 | -103.74974 | 37154 ft | 509 kts | 105° |
| 2026-04-28 01:13 | 45.15175 | -103.65201 | 37135 ft | 509 kts | 106° |
| 2026-04-28 01:13 | 45.12799 | -103.50623 | 37143 ft | 509 kts | 106° |
| 2026-04-28 01:14 | 45.11222 | -103.40848 | 37137 ft | 509 kts | 106° |
| 2026-04-28 01:14 | 45.09642 | -103.31074 | 37140 ft | 509 kts | 106° |
| 2026-04-28 01:15 | 45.08052 | -103.21301 | 37138 ft | 510 kts | 106° |
| 2026-04-28 01:15 | 45.06463 | -103.11596 | 37138 ft | 510 kts | 106° |
| 2026-04-28 01:16 | 45.04853 | -103.01822 | 37136 ft | 510 kts | 106° |
| 2026-04-28 01:16 | 45.03234 | -102.92045 | 37141 ft | 511 kts | 107° |
| 2026-04-28 01:17 | 45.01607 | -102.82279 | 37139 ft | 511 kts | 107° |
| 2026-04-28 01:17 | 44.99982 | -102.72576 | 37142 ft | 511 kts | 107° |
| 2026-04-28 01:18 | 44.98338 | -102.62818 | 37140 ft | 511 kts | 107° |
| 2026-04-28 01:18 | 44.96675 | -102.53066 | 37141 ft | 510 kts | 107° |
| 2026-04-28 01:19 | 44.95263 | -102.44982 | 37141 ft | 510 kts | 107° |
| 2026-04-28 01:19 | 44.93602 | -102.35409 | 37140 ft | 510 kts | 107° |
| 2026-04-28 01:20 | 44.91923 | -102.25679 | 37141 ft | 510 kts | 107° |
| 2026-04-28 01:20 | 44.90243 | -102.15964 | 37143 ft | 510 kts | 107° |
| 2026-04-28 01:21 | 44.88568 | -102.06327 | 37141 ft | 509 kts | 107° |
| 2026-04-28 01:21 | 44.86873 | -101.96637 | 37138 ft | 509 kts | 107° |
| 2026-04-28 01:22 | 44.85168 | -101.86947 | 37132 ft | 509 kts | 107° |
| 2026-04-28 01:22 | 44.83457 | -101.77272 | 37129 ft | 509 kts | 107° |
| 2026-04-28 01:23 | 44.81752 | -101.67684 | 37129 ft | 509 kts | 107° |
| 2026-04-28 01:23 | 44.80022 | -101.58008 | 37123 ft | 509 kts | 108° |
| 2026-04-28 01:24 | 44.78286 | -101.48350 | 37117 ft | 509 kts | 108° |
| 2026-04-28 01:24 | 44.76530 | -101.38701 | 37117 ft | 509 kts | 108° |
| 2026-04-28 01:25 | 44.74741 | -101.29072 | 37116 ft | 509 kts | 108° |
| 2026-04-28 01:25 | 44.72965 | -101.19438 | 37105 ft | 509 kts | 108° |
| 2026-04-28 01:26 | 44.71209 | -101.09878 | 37104 ft | 509 kts | 108° |
| 2026-04-28 01:26 | 44.69434 | -101.00252 | 37099 ft | 508 kts | 108° |
| 2026-04-28 01:27 | 44.67652 | -100.90635 | 37096 ft | 508 kts | 108° |
| 2026-04-28 01:27 | 44.66165 | -100.82653 | 37088 ft | 508 kts | 108° |
| 2026-04-28 01:28 | 44.64075 | -100.71496 | 37085 ft | 508 kts | 108° |
| 2026-04-28 01:28 | 44.62269 | -100.61904 | 37075 ft | 508 kts | 108° |
| 2026-04-28 01:29 | 44.60762 | -100.53939 | 37067 ft | 508 kts | 108° |
| 2026-04-28 01:29 | 44.58941 | -100.44359 | 37061 ft | 508 kts | 108° |
| 2026-04-28 01:30 | 44.57022 | -100.34829 | 37055 ft | 507 kts | 110° |
| 2026-04-28 01:30 | 44.54979 | -100.25367 | 37053 ft | 507 kts | 110° |
| 2026-04-28 01:31 | 44.52932 | -100.15902 | 37051 ft | 507 kts | 110° |
| 2026-04-28 01:31 | 44.50909 | -100.06498 | 37058 ft | 507 kts | 110° |
| 2026-04-28 01:32 | 44.48872 | -99.97038 | 37051 ft | 507 kts | 110° |
| 2026-04-28 01:32 | 44.46827 | -99.87585 | 37056 ft | 507 kts | 110° |
| 2026-04-28 01:33 | 44.44773 | -99.78136 | 37048 ft | 507 kts | 110° |
| 2026-04-28 01:33 | 44.42710 | -99.68690 | 37046 ft | 508 kts | 111° |
| 2026-04-28 01:34 | 44.40652 | -99.59313 | 37043 ft | 508 kts | 111° |
| 2026-04-28 01:34 | 44.38573 | -99.49877 | 37041 ft | 508 kts | 111° |
| 2026-04-28 01:35 | 44.36487 | -99.40451 | 37035 ft | 508 kts | 111° |
| 2026-04-28 01:35 | 44.34392 | -99.31029 | 37033 ft | 508 kts | 111° |
| 2026-04-28 01:36 | 44.32273 | -99.21693 | 37030 ft | 508 kts | 111° |
| 2026-04-28 01:36 | 44.30136 | -99.12298 | 37029 ft | 508 kts | 111° |
| 2026-04-28 01:37 | 44.28012 | -99.02902 | 37024 ft | 508 kts | 111° |
| 2026-04-28 01:37 | 44.25886 | -98.93501 | 37021 ft | 508 kts | 111° |
| 2026-04-28 01:38 | 44.23768 | -98.84174 | 37015 ft | 508 kts | 111° |
| 2026-04-28 01:38 | 44.21626 | -98.74788 | 37016 ft | 508 kts | 111° |
| 2026-04-28 01:39 | 44.19477 | -98.65412 | 37012 ft | 508 kts | 111° |
| 2026-04-28 01:39 | 44.17322 | -98.56052 | 37003 ft | 507 kts | 111° |
| 2026-04-28 01:40 | 44.15160 | -98.46703 | 36996 ft | 507 kts | 111° |
| 2026-04-28 01:40 | 44.13005 | -98.37422 | 36993 ft | 507 kts | 111° |
| 2026-04-28 01:41 | 44.10830 | -98.28095 | 36991 ft | 507 kts | 111° |
| 2026-04-28 01:41 | 44.08644 | -98.18772 | 36994 ft | 507 kts | 111° |
| 2026-04-28 01:42 | 44.06418 | -98.09473 | 36994 ft | 507 kts | 112° |
| 2026-04-28 01:42 | 44.04213 | -98.00234 | 36990 ft | 507 kts | 111° |
| 2026-04-28 01:43 | 44.02003 | -97.90932 | 36987 ft | 507 kts | 111° |
| 2026-04-28 01:43 | 43.99789 | -97.81631 | 36985 ft | 507 kts | 111° |
| 2026-04-28 01:44 | 43.97569 | -97.72340 | 36981 ft | 507 kts | 112° |
| 2026-04-28 01:44 | 43.95352 | -97.63106 | 36973 ft | 507 kts | 112° |
| 2026-04-28 01:45 | 43.93113 | -97.53822 | 36964 ft | 508 kts | 112° |
| 2026-04-28 01:45 | 43.90866 | -97.44542 | 36951 ft | 508 kts | 112° |
| 2026-04-28 01:46 | 43.88610 | -97.35259 | 36942 ft | 508 kts | 112° |
| 2026-04-28 01:46 | 43.86360 | -97.26044 | 36946 ft | 508 kts | 112° |
| 2026-04-28 01:47 | 43.84089 | -97.16774 | 36934 ft | 508 kts | 112° |
| 2026-04-28 01:47 | 43.81799 | -97.07505 | 36942 ft | 509 kts | 112° |
| 2026-04-28 01:48 | 43.79475 | -96.98259 | 36933 ft | 509 kts | 112° |
| 2026-04-28 01:48 | 43.77159 | -96.89001 | 36912 ft | 509 kts | 112° |
| 2026-04-28 01:49 | 43.74866 | -96.79802 | 36910 ft | 509 kts | 112° |
| 2026-04-28 01:49 | 43.72550 | -96.70534 | 36912 ft | 510 kts | 112° |
| 2026-04-28 01:50 | 43.70226 | -96.61276 | 36910 ft | 510 kts | 112° |
| 2026-04-28 01:50 | 43.67894 | -96.52026 | 36907 ft | 510 kts | 112° |
| 2026-04-28 01:51 | 43.65568 | -96.42834 | 36901 ft | 510 kts | 112° |
| 2026-04-28 01:51 | 43.63218 | -96.33587 | 36890 ft | 510 kts | 112° |
| 2026-04-28 01:52 | 43.60861 | -96.24349 | 36897 ft | 511 kts | 112° |
| 2026-04-28 01:52 | 43.58496 | -96.15115 | 36894 ft | 511 kts | 113° |
| 2026-04-28 01:53 | 43.56121 | -96.05879 | 36895 ft | 511 kts | 113° |
| 2026-04-28 01:53 | 43.53739 | -95.96723 | 36889 ft | 511 kts | 113° |
| 2026-04-28 01:54 | 43.51318 | -95.87523 | 36869 ft | 511 kts | 113° |
| 2026-04-28 01:54 | 43.48909 | -95.78313 | 36864 ft | 511 kts | 113° |
| 2026-04-28 01:55 | 43.46503 | -95.69103 | 36861 ft | 511 kts | 113° |
| 2026-04-28 01:55 | 43.44108 | -95.59959 | 36858 ft | 512 kts | 113° |
| 2026-04-28 01:56 | 43.41685 | -95.50754 | 36854 ft | 512 kts | 113° |
| 2026-04-28 01:56 | 43.39257 | -95.41563 | 36845 ft | 512 kts | 113° |
| 2026-04-28 01:57 | 43.36819 | -95.32373 | 36839 ft | 512 kts | 114° |
| 2026-04-28 01:57 | 43.34391 | -95.23251 | 36836 ft | 512 kts | 114° |
| 2026-04-28 01:58 | 43.31938 | -95.14075 | 36835 ft | 512 kts | 114° |
| 2026-04-28 01:58 | 43.29477 | -95.04903 | 36848 ft | 512 kts | 114° |
| 2026-04-28 01:59 | 43.27006 | -94.95729 | 36841 ft | 512 kts | 114° |
| 2026-04-28 01:59 | 43.24519 | -94.86641 | 36823 ft | 512 kts | 114° |
| 2026-04-28 02:00 | 43.22007 | -94.77496 | 36827 ft | 513 kts | 114° |
| 2026-04-28 02:00 | 43.19506 | -94.68342 | 36829 ft | 513 kts | 114° |
| 2026-04-28 02:01 | 43.17004 | -94.59184 | 36822 ft | 513 kts | 114° |
| 2026-04-28 02:01 | 43.14498 | -94.50046 | 36811 ft | 513 kts | 114° |
| 2026-04-28 02:02 | 43.11998 | -94.40969 | 36806 ft | 513 kts | 115° |
| 2026-04-28 02:02 | 43.09476 | -94.31848 | 36805 ft | 513 kts | 115° |
| 2026-04-28 02:03 | 43.06945 | -94.22727 | 36802 ft | 513 kts | 115° |
| 2026-04-28 02:03 | 43.04407 | -94.13612 | 36812 ft | 513 kts | 115° |
| 2026-04-28 02:04 | 43.01861 | -94.04506 | 36817 ft | 513 kts | 115° |
| 2026-04-28 02:04 | 42.99326 | -93.95469 | 36813 ft | 513 kts | 115° |
| 2026-04-28 02:05 | 42.96759 | -93.86373 | 36813 ft | 513 kts | 115° |
| 2026-04-28 02:05 | 42.94158 | -93.77303 | 36814 ft | 513 kts | 115° |
| 2026-04-28 02:06 | 42.91563 | -93.68233 | 36810 ft | 513 kts | 115° |
| 2026-04-28 02:06 | 42.88994 | -93.59218 | 36803 ft | 513 kts | 115° |
| 2026-04-28 02:07 | 42.86406 | -93.50146 | 36791 ft | 513 kts | 115° |
| 2026-04-28 02:07 | 42.83875 | -93.41037 | 36769 ft | 514 kts | 115° |
| 2026-04-28 02:08 | 42.81391 | -93.31911 | 36769 ft | 514 kts | 115° |
| 2026-04-28 02:08 | 42.78918 | -93.22842 | 36784 ft | 514 kts | 115° |
| 2026-04-28 02:09 | 42.76418 | -93.13724 | 36782 ft | 514 kts | 115° |
| 2026-04-28 02:09 | 42.73909 | -93.04619 | 36779 ft | 514 kts | 115° |
| 2026-04-28 02:10 | 42.71392 | -92.95521 | 36767 ft | 514 kts | 115° |
| 2026-04-28 02:10 | 42.68886 | -92.86495 | 36753 ft | 514 kts | 115° |
| 2026-04-28 02:11 | 42.66357 | -92.77415 | 36738 ft | 514 kts | 115° |
| 2026-04-28 02:11 | 42.63820 | -92.68344 | 36743 ft | 514 kts | 115° |
| 2026-04-28 02:12 | 42.61276 | -92.59278 | 36744 ft | 513 kts | 115° |
| 2026-04-28 02:12 | 42.58726 | -92.50227 | 36743 ft | 513 kts | 116° |
| 2026-04-28 02:13 | 42.55773 | -92.41560 | 36743 ft | 506 kts | 125° |
| 2026-04-28 02:13 | 42.52078 | -92.33460 | 36746 ft | 505 kts | 128° |
| 2026-04-28 02:14 | 42.48289 | -92.25450 | 36734 ft | 505 kts | 128° |
| 2026-04-28 02:14 | 42.44554 | -92.17384 | 36753 ft | 505 kts | 127° |
| 2026-04-28 02:15 | 42.39027 | -92.05312 | 36761 ft | 505 kts | 127° |
| 2026-04-28 02:16 | 42.35324 | -91.97243 | 36760 ft | 505 kts | 127° |
| 2026-04-28 02:16 | 42.31612 | -91.89184 | 36751 ft | 505 kts | 128° |
| 2026-04-28 02:17 | 42.27897 | -91.81146 | 36748 ft | 504 kts | 128° |
| 2026-04-28 02:17 | 42.24179 | -91.73121 | 36736 ft | 504 kts | 128° |
| 2026-04-28 02:18 | 42.20480 | -91.65160 | 36716 ft | 504 kts | 128° |
| 2026-04-28 02:18 | 42.16753 | -91.57157 | 36707 ft | 504 kts | 128° |
| 2026-04-28 02:19 | 42.13015 | -91.49166 | 36700 ft | 504 kts | 128° |
| 2026-04-28 02:19 | 42.09252 | -91.41211 | 36702 ft | 504 kts | 129° |
| 2026-04-28 02:20 | 42.05522 | -91.33308 | 36703 ft | 504 kts | 129° |
| 2026-04-28 02:20 | 42.01772 | -91.25349 | 36702 ft | 504 kts | 129° |
| 2026-04-28 02:21 | 41.98022 | -91.17400 | 36696 ft | 503 kts | 129° |
| 2026-04-28 02:21 | 41.94267 | -91.09465 | 36698 ft | 503 kts | 129° |
| 2026-04-28 02:22 | 41.90540 | -91.01610 | 36680 ft | 502 kts | 129° |
| 2026-04-28 02:22 | 41.86781 | -90.93709 | 36674 ft | 502 kts | 129° |
| 2026-04-28 02:23 | 41.83022 | -90.85831 | 36679 ft | 501 kts | 129° |
| 2026-04-28 02:23 | 41.79259 | -90.77962 | 36694 ft | 501 kts | 129° |
| 2026-04-28 02:24 | 41.75499 | -90.70119 | 36704 ft | 500 kts | 129° |
| 2026-04-28 02:24 | 41.71758 | -90.62338 | 36720 ft | 500 kts | 129° |
| 2026-04-28 02:25 | 41.67987 | -90.54532 | 36725 ft | 499 kts | 130° |
| 2026-04-28 02:25 | 41.64198 | -90.46766 | 36724 ft | 498 kts | 130° |
| 2026-04-28 02:26 | 41.60415 | -90.38996 | 36713 ft | 498 kts | 130° |
| 2026-04-28 02:26 | 41.56677 | -90.31303 | 36698 ft | 497 kts | 130° |
| 2026-04-28 02:27 | 41.52916 | -90.23577 | 36690 ft | 495 kts | 130° |
| 2026-04-28 02:27 | 41.49161 | -90.15882 | 36677 ft | 494 kts | 130° |
| 2026-04-28 02:28 | 41.45412 | -90.08222 | 36682 ft | 492 kts | 130° |
| 2026-04-28 02:28 | 41.41668 | -90.00592 | 36667 ft | 491 kts | 131° |
| 2026-04-28 02:29 | 41.38184 | -89.93510 | 36672 ft | 490 kts | 131° |
| 2026-04-28 02:29 | 41.34453 | -89.85942 | 36673 ft | 488 kts | 131° |
| 2026-04-28 02:30 | 41.30726 | -89.78404 | 36675 ft | 487 kts | 131° |
| 2026-04-28 02:30 | 41.27010 | -89.70904 | 36680 ft | 485 kts | 131° |
| 2026-04-28 02:31 | 41.23323 | -89.63484 | 36680 ft | 483 kts | 132° |
| 2026-04-28 02:31 | 41.19595 | -89.56065 | 36685 ft | 482 kts | 132° |
| 2026-04-28 02:32 | 41.15881 | -89.48670 | 36703 ft | 481 kts | 132° |
| 2026-04-28 02:32 | 41.12184 | -89.41292 | 36699 ft | 480 kts | 132° |
| 2026-04-28 02:33 | 41.08521 | -89.33986 | 36701 ft | 478 kts | 132° |
| 2026-04-28 02:33 | 41.04838 | -89.26659 | 36706 ft | 477 kts | 133° |
| 2026-04-28 02:34 | 41.01163 | -89.19365 | 36705 ft | 475 kts | 133° |
| 2026-04-28 02:34 | 40.97492 | -89.12099 | 36703 ft | 474 kts | 133° |
| 2026-04-28 02:35 | 40.93852 | -89.04910 | 36715 ft | 472 kts | 133° |
| 2026-04-28 02:35 | 40.90202 | -88.97716 | 36730 ft | 470 kts | 133° |
| 2026-04-28 02:36 | 40.86561 | -88.90559 | 36735 ft | 468 kts | 133° |
| 2026-04-28 02:36 | 40.82934 | -88.83446 | 36745 ft | 466 kts | 133° |
| 2026-04-28 02:37 | 40.79341 | -88.76415 | 36744 ft | 464 kts | 133° |
| 2026-04-28 02:37 | 40.75726 | -88.69381 | 36742 ft | 462 kts | 134° |
| 2026-04-28 02:38 | 40.72104 | -88.62394 | 36744 ft | 461 kts | 134° |
| 2026-04-28 02:38 | 40.68492 | -88.55404 | 36737 ft | 461 kts | 133° |
| 2026-04-28 02:39 | 40.64918 | -88.48478 | 36742 ft | 460 kts | 133° |
| 2026-04-28 02:39 | 40.61321 | -88.41519 | 36733 ft | 459 kts | 133° |
| 2026-04-28 02:40 | 40.57730 | -88.34586 | 36740 ft | 458 kts | 133° |
| 2026-04-28 02:40 | 40.54138 | -88.27667 | 36755 ft | 458 kts | 133° |
| 2026-04-28 02:41 | 40.50544 | -88.20761 | 36763 ft | 457 kts | 133° |
| 2026-04-28 02:41 | 40.46973 | -88.13914 | 36772 ft | 457 kts | 133° |
| 2026-04-28 02:42 | 40.43375 | -88.07031 | 36775 ft | 457 kts | 133° |
| 2026-04-28 02:42 | 40.39777 | -88.00160 | 36790 ft | 457 kts | 133° |
| 2026-04-28 02:43 | 40.36173 | -87.93306 | 36774 ft | 455 kts | 134° |
| 2026-04-28 02:43 | 40.31987 | -87.87313 | 36770 ft | 441 kts | 146° |
| 2026-04-28 02:44 | 40.27309 | -87.82231 | 36785 ft | 440 kts | 148° |
| 2026-04-28 02:44 | 40.22564 | -87.77164 | 36798 ft | 441 kts | 147° |
| 2026-04-28 02:45 | 40.17841 | -87.72012 | 36803 ft | 443 kts | 147° |
| 2026-04-28 02:45 | 40.13121 | -87.66818 | 36810 ft | 444 kts | 147° |
| 2026-04-28 02:46 | 40.08422 | -87.61646 | 36802 ft | 445 kts | 147° |
| 2026-04-28 02:46 | 40.03673 | -87.56430 | 36795 ft | 447 kts | 147° |
| 2026-04-28 02:47 | 39.98913 | -87.51214 | 36787 ft | 448 kts | 147° |
| 2026-04-28 02:47 | 39.94129 | -87.45982 | 36778 ft | 450 kts | 147° |
| 2026-04-28 02:48 | 39.89360 | -87.40776 | 36778 ft | 451 kts | 147° |
| 2026-04-28 02:48 | 39.84542 | -87.35526 | 36782 ft | 452 kts | 147° |
| 2026-04-28 02:49 | 39.79711 | -87.30274 | 36783 ft | 453 kts | 147° |
| 2026-04-28 02:49 | 39.74861 | -87.25009 | 36794 ft | 454 kts | 147° |
| 2026-04-28 02:50 | 39.70029 | -87.19782 | 36681 ft | 457 kts | 147° |
| 2026-04-28 02:50 | 39.67581 | -87.17153 | 36419 ft | 457 kts | 147° |
| 2026-04-28 02:50 | 39.65128 | -87.14521 | 35954 ft | 458 kts | 147° |
| 2026-04-28 02:50 | 39.62673 | -87.11884 | 35358 ft | 459 kts | 147° |
| 2026-04-28 02:51 | 39.60208 | -87.09234 | 34837 ft | 461 kts | 147° |
| 2026-04-28 02:51 | 39.57736 | -87.06575 | 34276 ft | 463 kts | 147° |
| 2026-04-28 02:51 | 39.55246 | -87.03898 | 33678 ft | 466 kts | 147° |
| 2026-04-28 02:51 | 39.52744 | -87.01210 | 33061 ft | 469 kts | 147° |
| 2026-04-28 02:52 | 39.50257 | -86.98540 | 32472 ft | 472 kts | 147° |
| 2026-04-28 02:52 | 39.47719 | -86.95819 | 31869 ft | 475 kts | 147° |
| 2026-04-28 02:52 | 39.45161 | -86.93079 | 31254 ft | 478 kts | 147° |
| 2026-04-28 02:52 | 39.42589 | -86.90326 | 30622 ft | 482 kts | 147° |
| 2026-04-28 02:53 | 39.39996 | -86.87555 | 29878 ft | 484 kts | 147° |
| 2026-04-28 02:53 | 39.37407 | -86.84785 | 29041 ft | 482 kts | 147° |
| 2026-04-28 02:53 | 39.34833 | -86.82031 | 28273 ft | 479 kts | 147° |
| 2026-04-28 02:53 | 39.32268 | -86.79291 | 27558 ft | 477 kts | 147° |
| 2026-04-28 02:54 | 39.29714 | -86.76567 | 26856 ft | 475 kts | 147° |
| 2026-04-28 02:54 | 39.27205 | -86.73895 | 26168 ft | 473 kts | 147° |
| 2026-04-28 02:54 | 39.24672 | -86.71200 | 25465 ft | 471 kts | 147° |
| 2026-04-28 02:54 | 39.22150 | -86.68519 | 24788 ft | 469 kts | 147° |
| 2026-04-28 02:55 | 39.19638 | -86.65853 | 24101 ft | 467 kts | 148° |
| 2026-04-28 02:55 | 39.17132 | -86.63195 | 23401 ft | 465 kts | 148° |
| 2026-04-28 02:55 | 39.14641 | -86.60554 | 22623 ft | 462 kts | 148° |
| 2026-04-28 02:55 | 39.12166 | -86.57933 | 21899 ft | 458 kts | 148° |
| 2026-04-28 02:56 | 39.09718 | -86.55341 | 21210 ft | 453 kts | 148° |
| 2026-04-28 02:56 | 39.07330 | -86.52815 | 20550 ft | 448 kts | 149° |
| 2026-04-28 02:56 | 39.04933 | -86.50292 | 19887 ft | 442 kts | 149° |
| 2026-04-28 02:56 | 39.02565 | -86.47811 | 19233 ft | 436 kts | 149° |
| 2026-04-28 02:57 | 39.00230 | -86.45364 | 18620 ft | 430 kts | 149° |
| 2026-04-28 02:57 | 38.97928 | -86.42948 | 17968 ft | 424 kts | 149° |
| 2026-04-28 02:57 | 38.95662 | -86.40568 | 17280 ft | 418 kts | 149° |
| 2026-04-28 02:57 | 38.93424 | -86.38218 | 16673 ft | 412 kts | 149° |
| 2026-04-28 02:58 | 38.91224 | -86.35909 | 16093 ft | 407 kts | 149° |
| 2026-04-28 02:58 | 38.89048 | -86.33627 | 15498 ft | 401 kts | 149° |
| 2026-04-28 02:58 | 38.86900 | -86.31375 | 14892 ft | 396 kts | 149° |
| 2026-04-28 02:58 | 38.84807 | -86.29184 | 14307 ft | 391 kts | 149° |
| 2026-04-28 02:59 | 38.82717 | -86.26996 | 13717 ft | 386 kts | 149° |
| 2026-04-28 02:59 | 38.80646 | -86.24830 | 13064 ft | 381 kts | 149° |
| 2026-04-28 02:59 | 38.78601 | -86.22693 | 12474 ft | 377 kts | 149° |
| 2026-04-28 02:59 | 38.76581 | -86.20582 | 11893 ft | 373 kts | 149° |
| 2026-04-28 03:00 | 38.74580 | -86.18495 | 11418 ft | 369 kts | 149° |
| 2026-04-28 03:00 | 38.72599 | -86.16428 | 11162 ft | 363 kts | 149° |
| 2026-04-28 03:00 | 38.70711 | -86.14442 | 11049 ft | 339 kts | 150° |
| 2026-04-28 03:00 | 38.68950 | -86.12583 | 10923 ft | 318 kts | 150° |
| 2026-04-28 03:01 | 38.67317 | -86.10864 | 10800 ft | 298 kts | 151° |
| 2026-04-28 03:01 | 38.65742 | -86.09216 | 10680 ft | 289 kts | 152° |
| 2026-04-28 03:01 | 38.64185 | -86.07604 | 10492 ft | 287 kts | 152° |
| 2026-04-28 03:01 | 38.62637 | -86.06008 | 10074 ft | 286 kts | 152° |
| 2026-04-28 03:02 | 38.61083 | -86.04405 | 9539 ft | 286 kts | 152° |
| 2026-04-28 03:02 | 38.59537 | -86.02808 | 8999 ft | 285 kts | 152° |
| 2026-04-28 03:02 | 38.58004 | -86.01219 | 8492 ft | 283 kts | 153° |
| 2026-04-28 03:02 | 38.56486 | -85.99645 | 8000 ft | 279 kts | 153° |
| 2026-04-28 03:03 | 38.54985 | -85.98090 | 7568 ft | 276 kts | 153° |
| 2026-04-28 03:03 | 38.53531 | -85.96581 | 7164 ft | 269 kts | 153° |
| 2026-04-28 03:03 | 38.52093 | -85.95088 | 6732 ft | 265 kts | 154° |
| 2026-04-28 03:03 | 38.50668 | -85.93614 | 6314 ft | 262 kts | 154° |
| 2026-04-28 03:04 | 38.49258 | -85.92158 | 5862 ft | 259 kts | 154° |
| 2026-04-28 03:04 | 38.47871 | -85.90726 | 5485 ft | 255 kts | 154° |
| 2026-04-28 03:04 | 38.46505 | -85.89315 | 5123 ft | 251 kts | 154° |
| 2026-04-28 03:04 | 38.45158 | -85.87925 | 4754 ft | 247 kts | 154° |
| 2026-04-28 03:05 | 38.43835 | -85.86560 | 4420 ft | 243 kts | 154° |
| 2026-04-28 03:05 | 38.42550 | -85.85234 | 4254 ft | 233 kts | 154° |
| 2026-04-28 03:05 | 38.41378 | -85.84000 | 4157 ft | 205 kts | 154° |
| 2026-04-28 03:05 | 38.40320 | -85.82900 | 4066 ft | 191 kts | 156° |
| 2026-04-28 03:06 | 38.39277 | -85.81956 | 3911 ft | 172 kts | 168° |
| 2026-04-28 03:06 | 38.38179 | -85.81482 | 3924 ft | 162 kts | 174° |
| 2026-04-28 03:06 | 38.37136 | -85.81047 | 3908 ft | 157 kts | 174° |
| 2026-04-28 03:06 | 38.36092 | -85.80664 | 3898 ft | 157 kts | 176° |
| 2026-04-28 03:07 | 38.35030 | -85.80312 | 3722 ft | 158 kts | 175° |
| 2026-04-28 03:07 | 38.33968 | -85.79956 | 3516 ft | 157 kts | 175° |
| 2026-04-28 03:07 | 38.32916 | -85.79603 | 3333 ft | 156 kts | 176° |
| 2026-04-28 03:07 | 38.31890 | -85.79261 | 3127 ft | 154 kts | 175° |
| 2026-04-28 03:08 | 38.30854 | -85.78917 | 2953 ft | 152 kts | 174° |
| 2026-04-28 03:08 | 38.29851 | -85.78580 | 2752 ft | 146 kts | 174° |
| 2026-04-28 03:08 | 38.28871 | -85.78255 | 2548 ft | 145 kts | 173° |
| 2026-04-28 03:08 | 38.27943 | -85.77942 | 2330 ft | 130 kts | 172° |
| 2026-04-28 03:09 | 38.27090 | -85.77658 | 2212 ft | 126 kts | 172° |
| 2026-04-28 03:09 | 38.26241 | -85.77378 | 2060 ft | 126 kts | 172° |
| 2026-04-28 03:09 | 38.25394 | -85.77098 | 1901 ft | 129 kts | 171° |
| 2026-04-28 03:09 | 38.24521 | -85.76809 | 1768 ft | 130 kts | 171° |
| 2026-04-28 03:10 | 38.23648 | -85.76520 | 1580 ft | 130 kts | 170° |
| 2026-04-28 03:10 | 38.22755 | -85.76225 | 1387 ft | 135 kts | 169° |
| 2026-04-28 03:10 | 38.21816 | -85.75915 | 1232 ft | 144 kts | 166° |
| 2026-04-28 03:10 | 38.20836 | -85.75592 | 1018 ft | 148 kts | 162° |
| 2026-04-28 03:11 | 38.19836 | -85.75252 | 797 ft | 150 kts | 159° |
| 2026-04-28 03:11 | 38.18816 | -85.74916 | 640 ft | 152 kts | 163° |
| 2026-04-28 03:11 | 38.17819 | -85.74592 | 501 ft | 133 kts | 163° |
| 2026-04-28 03:11 | 38.17080 | -85.74336 | 477 ft | 90 kts | 166° |
| 2026-04-28 03:12 | 38.16617 | -85.74189 | 483 ft | 49 kts | 165° |
| 2026-04-28 03:12 | 38.16388 | -85.74116 | 480 ft | 16 kts | 166° |
| 2026-04-28 03:12 | 38.16340 | -85.74070 | 482 ft | 5 kts | 116° |
| 2026-04-28 03:12 | 38.16342 | -85.74002 | 483 ft | 9 kts | 79° |
| 2026-04-28 03:13 | 38.16353 | -85.73967 | 477 ft | 6 kts | 53° |
| 2026-04-28 03:13 | 38.16374 | -85.73959 | 478 ft | 0 kts | 4° |
| 2026-04-28 03:14 | 38.16419 | -85.73968 | 480 ft | 15 kts | 348° |
| 2026-04-28 03:14 | 38.16506 | -85.73995 | 476 ft | 11 kts | 346° |
| 2026-04-28 03:14 | 38.16559 | -85.74013 | 480 ft | 5 kts | 345° |
| 2026-04-28 03:14 | 38.16587 | -85.74022 | 482 ft | 4 kts | 345° |
| 2026-04-28 03:15 | 38.16658 | -85.74046 | 482 ft | 16 kts | 345° |
| 2026-04-28 03:15 | 38.16778 | -85.74086 | 481 ft | 14 kts | 345° |
| 2026-04-28 03:15 | 38.16832 | -85.74103 | 481 ft | 0 kts | 353° |
| 2026-04-28 03:15 | 38.16882 | -85.74085 | 485 ft | 0 kts | 33° |
| 2026-04-28 03:16 | 38.16886 | -85.74071 | 477 ft | 4 kts | 68° |
| 2026-04-28 03:16 | 38.16874 | -85.73997 | 481 ft | 11 kts | 112° |
| 2026-04-28 03:16 | 38.16843 | -85.73934 | 484 ft | 6 kts | 129° |
| 2026-04-28 03:16 | 38.16821 | -85.73886 | 481 ft | 10 kts | 117° |
| 2026-04-28 03:17 | 38.16795 | -85.73848 | 478 ft | 4 kts | 146° |
| 2026-04-28 03:17 | 38.16755 | -85.73845 | 482 ft | 0 kts | 188° |